createdAt,value
2024-01-12T00:01:16.358Z,67.02
2024-01-12T00:06:25.563Z,68.44
2024-01-12T00:11:28.201Z,61.55
2024-01-12T00:16:30.853Z,56.50
2024-01-12T00:21:33.358Z,54.61
2024-01-12T00:26:36.037Z,55.05
2024-01-12T00:31:38.602Z,56.04
2024-01-12T00:36:41.170Z,57.22
2024-01-12T00:41:44.022Z,58.44
2024-01-12T00:46:51.700Z,59.73
2024-01-12T00:51:54.292Z,61.15
2024-01-12T00:56:57.041Z,64.32
2024-01-12T01:01:59.854Z,68.65
2024-01-12T01:07:02.570Z,67.88
2024-01-12T01:12:06.451Z,66.29
2024-01-12T01:17:08.984Z,66.36
2024-01-12T01:22:11.582Z,62.46
2024-01-12T01:27:14.169Z,55.89
2024-01-12T01:32:16.822Z,55.08
2024-01-12T01:37:19.439Z,56.66
2024-01-12T01:42:21.942Z,57.57
2024-01-12T01:47:26.706Z,58.44
2024-01-12T01:52:29.554Z,59.15
2024-01-12T01:57:33.833Z,59.64
2024-01-12T02:02:36.620Z,60.11
2024-01-12T02:07:39.492Z,60.95
2024-01-12T02:12:42.177Z,66.56
2024-01-12T02:17:44.878Z,72.38
2024-01-12T02:22:47.500Z,67.70
2024-01-12T02:27:50.011Z,60.70
2024-01-12T02:32:52.556Z,56.86
2024-01-12T02:37:55.101Z,53.67
2024-01-12T02:42:57.576Z,51.35
2024-01-12T02:48:00.182Z,49.93
2024-01-12T02:53:02.820Z,48.66
2024-01-12T02:58:05.328Z,46.78
2024-01-12T03:03:08.050Z,45.91
2024-01-12T03:08:11.816Z,44.75
2024-01-12T03:13:14.363Z,44.47
2024-01-12T03:18:16.986Z,44.42
2024-01-12T03:23:19.594Z,44.09
2024-01-12T03:28:22.105Z,43.74
2024-01-12T03:33:24.861Z,43.45
2024-01-12T03:38:27.500Z,43.28
2024-01-12T03:43:30.125Z,43.28
2024-01-12T03:48:33.514Z,42.90
2024-01-12T03:53:36.665Z,42.54
2024-01-12T03:58:39.774Z,41.71
2024-01-12T04:03:42.660Z,41.87
2024-01-12T04:08:45.278Z,42.08
2024-01-12T04:13:47.851Z,41.90
2024-01-12T04:18:50.533Z,41.86
2024-01-12T04:23:53.160Z,42.17
2024-01-12T04:28:55.851Z,42.45
2024-01-12T04:33:58.623Z,42.74
2024-01-12T04:39:01.291Z,43.47
2024-01-12T04:44:03.974Z,43.82
2024-01-12T04:49:06.839Z,44.15
2024-01-12T04:54:09.582Z,44.33
2024-01-12T04:59:12.295Z,44.58
2024-01-12T05:04:15.023Z,44.41
2024-01-12T05:09:18.115Z,44.02
2024-01-12T05:14:21.377Z,44.12
2024-01-12T05:19:24.009Z,43.92
2024-01-12T05:24:26.638Z,43.97
2024-01-12T05:29:29.152Z,44.00
2024-01-12T05:34:31.747Z,43.09
2024-01-12T05:39:34.249Z,42.53
2024-01-12T05:44:36.817Z,42.39
2024-01-12T05:49:39.577Z,42.03
2024-01-12T05:54:42.209Z,42.06
2024-01-12T05:59:44.746Z,42.30
2024-01-12T06:04:47.299Z,42.07
2024-01-12T06:09:49.812Z,42.46
2024-01-12T06:14:54.056Z,42.90
2024-01-12T06:19:56.606Z,43.11
2024-01-12T06:24:59.172Z,42.71
2024-01-12T06:30:01.950Z,42.77
2024-01-12T06:35:05.732Z,43.33
2024-01-12T06:40:09.251Z,42.63
2024-01-12T06:45:12.456Z,43.46
2024-01-12T06:50:15.252Z,44.56
2024-01-12T06:55:17.904Z,45.11
2024-01-12T07:00:20.754Z,45.69
2024-01-12T07:05:23.415Z,45.45
2024-01-12T07:10:26.056Z,44.72
2024-01-12T07:15:28.521Z,43.99
2024-01-12T07:20:31.086Z,43.74
2024-01-12T07:25:35.711Z,43.78
2024-01-12T07:30:38.407Z,43.68
2024-01-12T07:35:41.164Z,43.53
2024-01-12T07:40:43.708Z,42.87
2024-01-12T07:45:46.459Z,43.26
2024-01-12T07:50:49.052Z,42.53
2024-01-12T07:55:53.351Z,41.22
2024-01-12T08:00:56.004Z,42.00
2024-01-12T08:05:58.698Z,45.88
2024-01-12T08:11:01.411Z,49.53
2024-01-12T08:16:04.121Z,54.72
2024-01-12T08:21:06.764Z,56.02
2024-01-12T08:26:09.361Z,60.72
2024-01-12T08:31:12.724Z,64.10
2024-01-12T08:36:15.343Z,55.63
2024-01-12T08:41:18.229Z,56.19
2024-01-12T08:46:21.575Z,63.66
2024-01-12T08:51:24.913Z,60.88
2024-01-12T08:56:28.046Z,51.75
2024-01-12T09:01:30.792Z,52.93
2024-01-12T09:06:33.583Z,56.81
2024-01-12T09:11:36.836Z,59.23
2024-01-12T09:16:39.969Z,65.35
2024-01-12T09:21:43.226Z,66.27
2024-01-12T09:26:45.904Z,58.53
2024-01-12T09:31:48.676Z,56.64
2024-01-12T09:36:51.362Z,58.77
2024-01-12T09:42:03.531Z,65.86
2024-01-12T09:47:06.365Z,65.60
2024-01-12T09:52:09.137Z,54.92
2024-01-12T09:57:16.039Z,52.82
2024-01-12T10:02:19.740Z,56.23
2024-01-12T10:07:22.486Z,63.27
2024-01-12T10:12:25.244Z,65.60
2024-01-12T10:17:28.426Z,59.04
2024-01-12T10:22:31.851Z,55.93
2024-01-12T10:27:34.435Z,60.16
2024-01-12T10:32:37.064Z,67.39
2024-01-12T10:37:40.801Z,57.81
2024-01-12T10:42:49.794Z,54.84
2024-01-12T10:48:11.145Z,58.04
2024-01-12T10:53:37.887Z,65.39
2024-01-12T10:58:45.909Z,67.13
2024-01-12T11:03:49.677Z,66.40
2024-01-12T11:08:55.484Z,65.92
2024-01-12T11:13:59.538Z,64.47
2024-01-12T11:19:02.476Z,64.12
2024-01-12T11:24:05.870Z,64.21
2024-01-12T11:29:15.246Z,64.41
2024-01-12T11:34:19.716Z,64.72
2024-01-12T11:39:23.855Z,64.54
2024-01-12T11:44:26.912Z,64.46
2024-01-12T11:49:31.185Z,64.78
2024-01-12T11:54:34.391Z,64.62
2024-01-12T11:59:38.584Z,64.17
2024-01-12T12:04:41.240Z,63.82
2024-01-12T12:09:46.801Z,63.93
2024-01-12T12:15:05.922Z,63.88
2024-01-12T12:20:12.497Z,63.59
2024-01-12T12:25:16.777Z,63.27
2024-01-12T12:30:19.585Z,63.36
2024-01-12T12:35:25.223Z,63.41
2024-01-12T12:40:27.951Z,63.46
2024-01-12T12:45:31.067Z,63.25
2024-01-12T12:50:33.751Z,63.34
2024-01-12T12:55:36.317Z,63.41
2024-01-12T13:00:39.055Z,63.40
2024-01-12T13:05:41.971Z,63.35
2024-01-12T13:10:44.684Z,63.50
2024-01-12T13:15:47.216Z,63.49
2024-01-12T13:20:50.033Z,63.62
2024-01-12T13:25:54.885Z,64.01
2024-01-12T13:31:00.774Z,63.94
2024-01-12T13:36:03.625Z,64.23
2024-01-12T13:41:07.370Z,63.96
2024-01-12T13:46:11.017Z,64.30
2024-01-12T13:51:13.649Z,64.76
2024-01-12T13:56:16.672Z,65.08
2024-01-12T14:01:19.267Z,65.04
2024-01-12T14:06:22.448Z,65.41
2024-01-12T14:11:25.237Z,65.63
2024-01-12T14:16:28.237Z,65.45
2024-01-12T14:21:32.210Z,65.85
2024-01-12T14:26:34.948Z,66.06
2024-01-12T14:31:43.718Z,65.18
2024-01-12T14:36:46.420Z,65.16
2024-01-12T14:41:55.842Z,64.34
2024-01-12T14:46:59.940Z,64.31
2024-01-12T14:52:02.818Z,64.35
2024-01-12T14:57:05.588Z,64.66
2024-01-12T15:02:09.612Z,64.44
2024-01-12T15:07:12.379Z,64.01
2024-01-12T15:12:15.065Z,64.48
2024-01-12T15:17:18.437Z,64.81
2024-01-12T15:22:21.905Z,64.61
2024-01-12T15:27:24.662Z,64.75
2024-01-12T15:32:27.473Z,64.73
2024-01-12T15:37:30.645Z,65.03
2024-01-12T15:42:38.975Z,64.97
2024-01-12T15:47:47.845Z,65.07
2024-01-12T15:58:40.145Z,65.30
2024-01-12T16:03:42.977Z,65.33
2024-01-12T16:19:11.862Z,65.28
2024-01-12T16:24:39.960Z,65.42
2024-01-12T16:29:47.305Z,65.45
2024-01-12T16:35:10.908Z,65.34
2024-01-12T16:40:14.129Z,65.41
2024-01-12T16:45:16.979Z,65.39
2024-01-12T16:50:20.377Z,65.33
2024-01-12T16:55:24.692Z,65.27
2024-01-12T17:00:28.677Z,65.37
2024-01-12T17:05:31.479Z,65.54
2024-01-12T17:10:35.684Z,65.16
2024-01-12T17:15:38.935Z,65.12
2024-01-12T17:20:42.555Z,65.31
2024-01-12T17:25:45.463Z,65.31
2024-01-12T17:30:48.803Z,65.43
2024-01-12T17:35:53.794Z,65.28
2024-01-12T17:40:57.169Z,65.12
2024-01-12T17:46:01.225Z,65.26
2024-01-12T17:51:05.540Z,65.30
2024-01-12T17:56:08.566Z,65.16
2024-01-12T18:01:25.600Z,65.17
2024-01-12T18:06:28.489Z,65.10
2024-01-12T18:11:33.281Z,65.17
2024-01-12T18:16:36.454Z,65.11
2024-01-12T18:21:39.106Z,65.13
2024-01-12T18:26:41.726Z,65.24
2024-01-12T18:31:46.248Z,65.33
2024-01-12T18:36:48.981Z,65.33
2024-01-12T18:41:51.909Z,65.42
2024-01-12T18:46:54.638Z,65.35
2024-01-12T18:51:59.676Z,65.25
2024-01-12T18:57:02.327Z,65.31
2024-01-12T19:02:05.958Z,65.17
2024-01-12T19:07:11.241Z,65.00
2024-01-12T19:12:13.862Z,64.90
2024-01-12T19:17:16.924Z,64.90
2024-01-12T19:22:22.333Z,64.86
2024-01-12T19:27:25.053Z,64.86
2024-01-12T19:32:28.396Z,64.93
2024-01-12T19:37:31.975Z,64.84
2024-01-12T19:42:35.073Z,64.91
2024-01-12T19:47:39.256Z,64.85
2024-01-12T19:52:42.113Z,64.97
2024-01-12T19:57:44.916Z,64.91
2024-01-12T20:02:49.065Z,64.92
2024-01-12T20:07:51.873Z,65.07
2024-01-12T20:12:55.013Z,64.99
2024-01-12T20:17:57.711Z,65.11
2024-01-12T20:23:00.442Z,65.21
2024-01-12T20:28:08.003Z,65.24
2024-01-12T20:33:12.021Z,65.46
2024-01-12T20:38:15.243Z,65.28
2024-01-12T20:43:17.874Z,65.33
2024-01-12T20:48:22.456Z,65.30
2024-01-12T20:53:26.044Z,65.13
2024-01-12T20:58:30.028Z,64.99
2024-01-12T21:03:34.666Z,64.93
2024-01-12T21:08:37.987Z,64.98
2024-01-12T21:13:40.954Z,65.13
2024-01-12T21:18:43.895Z,65.54
2024-01-12T21:23:47.854Z,65.68
2024-01-12T21:28:52.086Z,65.89
2024-01-12T21:33:54.749Z,65.93
2024-01-12T21:38:58.348Z,66.14
2024-01-12T21:44:03.659Z,66.53
2024-01-12T21:49:07.148Z,66.68
2024-01-12T21:54:11.247Z,66.81
2024-01-12T21:59:14.890Z,66.85
2024-01-12T22:04:18.519Z,66.69
2024-01-12T22:09:21.230Z,66.31
2024-01-12T22:14:24.851Z,66.21
2024-01-12T22:19:27.751Z,65.87
2024-01-12T22:24:34.694Z,65.91
2024-01-12T22:29:38.406Z,65.87
2024-01-12T22:34:41.182Z,65.48
2024-01-12T22:39:44.915Z,65.46
2024-01-12T22:44:48.847Z,65.29
2024-01-12T22:50:08.218Z,64.90
2024-01-12T22:55:10.986Z,65.02
2024-01-12T23:00:30.062Z,65.12
2024-01-12T23:05:34.086Z,63.94
2024-01-12T23:10:39.599Z,63.64
2024-01-12T23:15:43.159Z,63.62
2024-01-12T23:20:45.746Z,63.75
2024-01-12T23:25:48.465Z,63.75
2024-01-12T23:30:51.157Z,63.76
2024-01-12T23:35:54.720Z,63.39
2024-01-12T23:40:57.468Z,63.38
2024-01-12T23:46:00.357Z,63.31
2024-01-12T23:51:03.584Z,63.49
2024-01-12T23:56:07.200Z,63.20
